sensor_id;sensor_type;location;lat;lon;timestamp;pressure;altitude;pressure_sealevel;temperature;humidity
36380;BME280;22411;53.016;18.632;2024-02-23T00:00:12;97919.25;;;6.34;100.00
36380;BME280;22411;53.016;18.632;2024-02-23T00:02:57;97918.81;;;6.39;100.00
36380;BME280;22411;53.016;18.632;2024-02-23T00:05:24;97916.53;;;6.36;100.00
36380;BME280;22411;53.016;18.632;2024-02-23T00:07:49;97910.72;;;6.34;100.00
36380;BME280;22411;53.016;18.632;2024-02-23T00:10:15;97917.91;;;6.30;100.00
36380;BME280;22411;53.016;18.632;2024-02-23T00:12:42;97924.50;;;6.33;100.00
36380;BME280;22411;53.016;18.632;2024-02-23T00:15:09;97915.72;;;6.35;100.00
36380;BME280;22411;53.016;18.632;2024-02-23T00:17:35;97907.19;;;6.35;100.00
36380;BME280;22411;53.016;18.632;2024-02-23T00:20:01;97910.72;;;6.34;100.00
36380;BME280;22411;53.016;18.632;2024-02-23T00:22:27;97900.94;;;6.37;100.00
36380;BME280;22411;53.016;18.632;2024-02-23T00:24:52;97896.09;;;6.34;100.00
36380;BME280;22411;53.016;18.632;2024-02-23T00:27:18;97901.47;;;6.41;100.00
36380;BME280;22411;53.016;18.632;2024-02-23T00:29:44;97896.88;;;6.44;100.00
36380;BME280;22411;53.016;18.632;2024-02-23T00:32:10;97892.78;;;6.42;100.00
36380;BME280;22411;53.016;18.632;2024-02-23T00:34:36;97892.53;;;6.45;100.00
36380;BME280;22411;53.016;18.632;2024-02-23T00:37:02;97896.44;;;6.49;100.00
36380;BME280;22411;53.016;18.632;2024-02-23T00:39:29;97900.47;;;6.51;100.00
36380;BME280;22411;53.016;18.632;2024-02-23T00:41:54;97895.19;;;6.53;100.00
36380;BME280;22411;53.016;18.632;2024-02-23T00:44:20;97891.38;;;6.57;100.00
36380;BME280;22411;53.016;18.632;2024-02-23T00:46:46;97884.63;;;6.56;100.00
36380;BME280;22411;53.016;18.632;2024-02-23T00:49:12;97892.06;;;6.59;100.00
36380;BME280;22411;53.016;18.632;2024-02-23T00:51:37;97887.56;;;6.61;100.00
36380;BME280;22411;53.016;18.632;2024-02-23T00:54:03;97885.28;;;6.58;100.00
36380;BME280;22411;53.016;18.632;2024-02-23T00:56:29;97887.56;;;6.61;100.00
36380;BME280;22411;53.016;18.632;2024-02-23T00:58:55;97886.75;;;6.61;100.00
36380;BME280;22411;53.016;18.632;2024-02-23T01:01:20;97890.53;;;6.66;100.00
36380;BME280;22411;53.016;18.632;2024-02-23T01:03:46;97886.84;;;6.69;100.00
36380;BME280;22411;53.016;18.632;2024-02-23T01:06:12;97887.81;;;6.68;100.00
36380;BME280;22411;53.016;18.632;2024-02-23T01:08:37;97881.56;;;6.70;100.00
36380;BME280;22411;53.016;18.632;2024-02-23T01:11:05;97876.00;;;6.75;100.00
36380;BME280;22411;53.016;18.632;2024-02-23T01:13:31;97877.63;;;6.76;100.00
36380;BME280;22411;53.016;18.632;2024-02-23T01:15:56;97873.94;;;6.78;100.00
36380;BME280;22411;53.016;18.632;2024-02-23T01:18:22;97861.84;;;6.79;100.00
36380;BME280;22411;53.016;18.632;2024-02-23T01:20:48;97850.97;;;6.85;100.00
36380;BME280;22411;53.016;18.632;2024-02-23T01:23:14;97858.31;;;6.80;100.00
36380;BME280;22411;53.016;18.632;2024-02-23T01:25:40;97864.53;;;6.87;100.00
36380;BME280;22411;53.016;18.632;2024-02-23T01:28:06;97862.38;;;6.82;100.00
36380;BME280;22411;53.016;18.632;2024-02-23T01:30:32;97849.88;;;6.88;100.00
36380;BME280;22411;53.016;18.632;2024-02-23T01:32:57;97853.69;;;6.84;100.00
36380;BME280;22411;53.016;18.632;2024-02-23T01:35:23;97856.97;;;6.86;100.00
36380;BME280;22411;53.016;18.632;2024-02-23T01:37:49;97855.69;;;6.90;100.00
36380;BME280;22411;53.016;18.632;2024-02-23T01:40:14;97873.13;;;6.96;100.00
36380;BME280;22411;53.016;18.632;2024-02-23T01:42:40;97863.78;;;6.95;100.00
36380;BME280;22411;53.016;18.632;2024-02-23T01:45:06;97886.00;;;6.96;100.00
36380;BME280;22411;53.016;18.632;2024-02-23T01:47:33;97863.19;;;7.01;100.00
36380;BME280;22411;53.016;18.632;2024-02-23T01:49:59;97879.50;;;7.01;100.00
36380;BME280;22411;53.016;18.632;2024-02-23T01:52:25;97866.91;;;6.98;100.00
36380;BME280;22411;53.016;18.632;2024-02-23T01:54:52;97865.13;;;6.99;100.00
36380;BME280;22411;53.016;18.632;2024-02-23T01:57:20;97866.91;;;6.98;100.00
36380;BME280;22411;53.016;18.632;2024-02-23T01:59:47;97869.63;;;6.97;100.00
36380;BME280;22411;53.016;18.632;2024-02-23T02:02:14;97873.38;;;7.02;100.00
36380;BME280;22411;53.016;18.632;2024-02-23T02:04:39;97870.94;;;7.01;100.00
36380;BME280;22411;53.016;18.632;2024-02-23T02:07:05;97875.59;;;6.97;100.00
36380;BME280;22411;53.016;18.632;2024-02-23T02:09:31;97874.09;;;6.95;100.00
36380;BME280;22411;53.016;18.632;2024-02-23T02:11:57;97872.47;;;6.94;100.00
36380;BME280;22411;53.016;18.632;2024-02-23T02:14:23;97866.78;;;6.90;100.00
36380;BME280;22411;53.016;18.632;2024-02-23T02:16:49;97878.13;;;6.79;100.00
36380;BME280;22411;53.016;18.632;2024-02-23T02:19:14;97871.34;;;6.78;100.00
36380;BME280;22411;53.016;18.632;2024-02-23T02:21:41;97872.91;;;6.71;100.00
36380;BME280;22411;53.016;18.632;2024-02-23T02:24:06;97872.59;;;6.74;100.00
36380;BME280;22411;53.016;18.632;2024-02-23T02:26:32;97866.13;;;6.70;100.00
36380;BME280;22411;53.016;18.632;2024-02-23T02:28:58;97865.44;;;6.68;100.00
36380;BME280;22411;53.016;18.632;2024-02-23T02:31:24;97866.59;;;6.56;100.00
36380;BME280;22411;53.016;18.632;2024-02-23T02:33:50;97867.69;;;6.53;100.00
36380;BME280;22411;53.016;18.632;2024-02-23T02:36:16;97877.06;;;6.54;100.00
36380;BME280;22411;53.016;18.632;2024-02-23T02:38:41;97875.56;;;6.52;100.00
36380;BME280;22411;53.016;18.632;2024-02-23T02:41:08;97871.53;;;6.49;100.00
36380;BME280;22411;53.016;18.632;2024-02-23T02:43:34;97868.25;;;6.47;100.00
36380;BME280;22411;53.016;18.632;2024-02-23T02:46:00;97881.81;;;6.49;100.00
36380;BME280;22411;53.016;18.632;2024-02-23T02:48:25;97884.78;;;6.54;100.00
36380;BME280;22411;53.016;18.632;2024-02-23T02:50:51;97886.66;;;6.52;100.00
36380;BME280;22411;53.016;18.632;2024-02-23T02:53:17;97882.03;;;6.56;100.00
36380;BME280;22411;53.016;18.632;2024-02-23T02:55:44;97877.84;;;6.55;100.00
36380;BME280;22411;53.016;18.632;2024-02-23T02:58:12;97870.41;;;6.52;100.00
36380;BME280;22411;53.016;18.632;2024-02-23T03:00:38;97863.66;;;6.51;100.00
36380;BME280;22411;53.016;18.632;2024-02-23T03:03:04;97873.28;;;6.49;100.00
36380;BME280;22411;53.016;18.632;2024-02-23T03:05:30;97869.59;;;6.51;100.00
36380;BME280;22411;53.016;18.632;2024-02-23T03:07:56;97868.94;;;6.49;100.00
36380;BME280;22411;53.016;18.632;2024-02-23T03:10:22;97870.84;;;6.47;100.00
36380;BME280;22411;53.016;18.632;2024-02-23T03:12:47;97861.72;;;6.53;100.00
36380;BME280;22411;53.016;18.632;2024-02-23T03:15:13;97860.13;;;6.52;100.00
36380;BME280;22411;53.016;18.632;2024-02-23T03:17:39;97856.09;;;6.49;100.00
36380;BME280;22411;53.016;18.632;2024-02-23T03:20:05;97858.66;;;6.49;100.00
36380;BME280;22411;53.016;18.632;2024-02-23T03:22:37;97872.19;;;6.51;100.00
36380;BME280;22411;53.016;18.632;2024-02-23T03:25:04;97858.50;;;6.51;100.00
36380;BME280;22411;53.016;18.632;2024-02-23T03:27:34;97863.00;;;6.49;100.00
36380;BME280;22411;53.016;18.632;2024-02-23T03:30:06;97854.69;;;6.55;100.00
36380;BME280;22411;53.016;18.632;2024-02-23T03:32:35;97865.66;;;6.57;100.00
36380;BME280;22411;53.016;18.632;2024-02-23T03:35:06;97863.75;;;6.59;100.00
36380;BME280;22411;53.016;18.632;2024-02-23T03:37:32;97876.47;;;6.61;100.00
36380;BME280;22411;53.016;18.632;2024-02-23T03:39:58;97865.22;;;6.62;100.00
36380;BME280;22411;53.016;18.632;2024-02-23T03:42:25;97870.09;;;6.65;100.00
36380;BME280;22411;53.016;18.632;2024-02-23T03:44:50;97883.75;;;6.65;100.00
36380;BME280;22411;53.016;18.632;2024-02-23T03:47:16;97877.22;;;6.71;100.00
36380;BME280;22411;53.016;18.632;2024-02-23T03:49:42;97883.84;;;6.73;100.00
36380;BME280;22411;53.016;18.632;2024-02-23T03:52:07;97895.91;;;6.73;100.00
36380;BME280;22411;53.016;18.632;2024-02-23T03:54:33;97901.59;;;6.76;100.00
36380;BME280;22411;53.016;18.632;2024-02-23T03:56:59;97902.47;;;6.85;100.00
36380;BME280;22411;53.016;18.632;2024-02-23T03:59:25;97903.16;;;6.87;100.00
36380;BME280;22411;53.016;18.632;2024-02-23T04:01:50;97906.97;;;6.83;100.00
36380;BME280;22411;53.016;18.632;2024-02-23T04:04:17;97903.44;;;6.84;100.00
36380;BME280;22411;53.016;18.632;2024-02-23T04:06:42;97914.09;;;6.89;100.00
36380;BME280;22411;53.016;18.632;2024-02-23T04:09:08;97914.63;;;6.93;100.00
36380;BME280;22411;53.016;18.632;2024-02-23T04:11:34;97919.63;;;6.94;100.00
36380;BME280;22411;53.016;18.632;2024-02-23T04:14:00;97916.78;;;6.97;100.00
36380;BME280;22411;53.016;18.632;2024-02-23T04:16:26;97927.16;;;7.05;100.00
36380;BME280;22411;53.016;18.632;2024-02-23T04:18:53;97928.78;;;7.06;100.00
36380;BME280;22411;53.016;18.632;2024-02-23T04:21:20;97931.22;;;7.08;100.00
36380;BME280;22411;53.016;18.632;2024-02-23T04:23:46;97934.03;;;7.15;100.00
36380;BME280;22411;53.016;18.632;2024-02-23T04:26:12;97932.25;;;7.15;100.00
36380;BME280;22411;53.016;18.632;2024-02-23T04:28:39;97947.81;;;7.23;100.00
36380;BME280;22411;53.016;18.632;2024-02-23T04:31:05;97947.50;;;7.26;100.00
36380;BME280;22411;53.016;18.632;2024-02-23T04:33:30;97949.00;;;7.29;100.00
36380;BME280;22411;53.016;18.632;2024-02-23T04:35:56;97951.41;;;7.30;100.00
36380;BME280;22411;53.016;18.632;2024-02-23T04:38:22;97958.41;;;7.38;100.00
36380;BME280;22411;53.016;18.632;2024-02-23T04:40:48;97964.22;;;7.40;100.00
36380;BME280;22411;53.016;18.632;2024-02-23T04:43:14;97956.06;;;7.45;100.00
36380;BME280;22411;53.016;18.632;2024-02-23T04:45:39;97962.25;;;7.52;100.00
36380;BME280;22411;53.016;18.632;2024-02-23T04:48:06;97958.59;;;7.54;100.00
36380;BME280;22411;53.016;18.632;2024-02-23T04:50:31;97956.94;;;7.53;100.00
36380;BME280;22411;53.016;18.632;2024-02-23T04:52:57;97973.22;;;7.54;100.00
36380;BME280;22411;53.016;18.632;2024-02-23T04:55:23;97966.31;;;7.54;100.00
36380;BME280;22411;53.016;18.632;2024-02-23T04:57:48;97976.63;;;7.54;100.00
36380;BME280;22411;53.016;18.632;2024-02-23T05:00:14;97974.84;;;7.55;100.00
36380;BME280;22411;53.016;18.632;2024-02-23T05:02:40;97967.94;;;7.55;100.00
36380;BME280;22411;53.016;18.632;2024-02-23T05:05:06;97977.94;;;7.58;100.00
36380;BME280;22411;53.016;18.632;2024-02-23T05:07:32;97980.88;;;7.64;100.00
36380;BME280;22411;53.016;18.632;2024-02-23T05:09:58;97984.25;;;7.64;100.00
36380;BME280;22411;53.016;18.632;2024-02-23T05:12:24;97991.72;;;7.67;100.00
36380;BME280;22411;53.016;18.632;2024-02-23T05:14:49;97993.34;;;7.68;100.00
36380;BME280;22411;53.016;18.632;2024-02-23T05:17:15;97995.09;;;7.68;100.00
36380;BME280;22411;53.016;18.632;2024-02-23T05:19:41;97996.34;;;7.64;100.00
36380;BME280;22411;53.016;18.632;2024-02-23T05:22:07;97992.97;;;7.63;100.00
36380;BME280;22411;53.016;18.632;2024-02-23T05:24:32;97998.63;;;7.67;100.00
36380;BME280;22411;53.016;18.632;2024-02-23T05:26:58;97995.47;;;7.73;100.00
36380;BME280;22411;53.016;18.632;2024-02-23T05:29:24;98002.56;;;7.71;100.00
36380;BME280;22411;53.016;18.632;2024-02-23T05:31:52;98009.97;;;7.74;100.00
36380;BME280;22411;53.016;18.632;2024-02-23T05:34:18;98021.78;;;7.76;100.00
36380;BME280;22411;53.016;18.632;2024-02-23T05:36:45;98017.28;;;7.78;100.00
36380;BME280;22411;53.016;18.632;2024-02-23T05:39:16;98019.13;;;7.86;100.00
36380;BME280;22411;53.016;18.632;2024-02-23T05:41:43;98037.03;;;7.88;100.00
36380;BME280;22411;53.016;18.632;2024-02-23T05:44:09;98033.03;;;7.93;100.00
36380;BME280;22411;53.016;18.632;2024-02-23T05:46:36;98037.25;;;7.94;100.00
36380;BME280;22411;53.016;18.632;2024-02-23T05:49:02;98036.81;;;7.99;100.00
36380;BME280;22411;53.016;18.632;2024-02-23T05:51:30;98042.13;;;7.97;100.00
36380;BME280;22411;53.016;18.632;2024-02-23T05:53:56;98048.09;;;7.98;100.00
36380;BME280;22411;53.016;18.632;2024-02-23T05:56:23;98053.09;;;7.99;100.00
36380;BME280;22411;53.016;18.632;2024-02-23T05:58:51;98051.63;;;7.97;100.00
36380;BME280;22411;53.016;18.632;2024-02-23T06:01:18;98045.28;;;7.91;100.00
36380;BME280;22411;53.016;18.632;2024-02-23T06:03:44;98062.75;;;7.97;100.00
36380;BME280;22411;53.016;18.632;2024-02-23T06:06:11;98055.38;;;8.02;100.00
36380;BME280;22411;53.016;18.632;2024-02-23T06:08:36;98071.66;;;8.03;100.00
36380;BME280;22411;53.016;18.632;2024-02-23T06:11:03;98075.59;;;8.07;100.00
36380;BME280;22411;53.016;18.632;2024-02-23T06:13:30;98080.44;;;8.10;100.00
36380;BME280;22411;53.016;18.632;2024-02-23T06:15:56;98084.34;;;8.14;100.00
36380;BME280;22411;53.016;18.632;2024-02-23T06:18:22;98087.44;;;8.18;100.00
36380;BME280;22411;53.016;18.632;2024-02-23T06:20:49;98095.84;;;8.20;100.00
36380;BME280;22411;53.016;18.632;2024-02-23T06:23:16;98101.66;;;8.22;100.00
36380;BME280;22411;53.016;18.632;2024-02-23T06:25:41;98111.84;;;8.23;100.00
36380;BME280;22411;53.016;18.632;2024-02-23T06:28:07;98118.91;;;8.21;100.00
36380;BME280;22411;53.016;18.632;2024-02-23T06:30:33;98117.44;;;8.19;100.00
36380;BME280;22411;53.016;18.632;2024-02-23T06:32:58;98129.53;;;8.18;100.00
36380;BME280;22411;53.016;18.632;2024-02-23T06:35:24;98140.66;;;8.19;100.00
36380;BME280;22411;53.016;18.632;2024-02-23T06:37:50;98137.13;;;8.20;100.00
36380;BME280;22411;53.016;18.632;2024-02-23T06:40:16;98137.66;;;8.23;100.00
36380;BME280;22411;53.016;18.632;2024-02-23T06:42:41;98156.22;;;8.27;100.00
36380;BME280;22411;53.016;18.632;2024-02-23T06:45:07;98147.66;;;8.26;100.00
36380;BME280;22411;53.016;18.632;2024-02-23T06:47:33;98157.56;;;8.31;100.00
36380;BME280;22411;53.016;18.632;2024-02-23T06:49:59;98166.78;;;8.33;100.00
36380;BME280;22411;53.016;18.632;2024-02-23T06:52:25;98162.28;;;8.35;100.00
36380;BME280;22411;53.016;18.632;2024-02-23T06:54:52;98177.91;;;8.34;100.00
36380;BME280;22411;53.016;18.632;2024-02-23T06:57:18;98168.66;;;8.41;100.00
36380;BME280;22411;53.016;18.632;2024-02-23T06:59:44;98180.91;;;8.39;100.00
36380;BME280;22411;53.016;18.632;2024-02-23T07:02:09;98176.81;;;8.36;100.00
36380;BME280;22411;53.016;18.632;2024-02-23T07:04:35;98185.97;;;8.49;100.00
36380;BME280;22411;53.016;18.632;2024-02-23T07:07:01;98185.84;;;8.50;100.00
36380;BME280;22411;53.016;18.632;2024-02-23T07:09:33;98201.16;;;8.52;100.00
36380;BME280;22411;53.016;18.632;2024-02-23T07:11:59;98192.78;;;8.50;100.00
36380;BME280;22411;53.016;18.632;2024-02-23T07:14:24;98201.38;;;8.58;100.00
36380;BME280;22411;53.016;18.632;2024-02-23T07:16:50;98213.22;;;8.61;100.00
36380;BME280;22411;53.016;18.632;2024-02-23T07:19:17;98222.28;;;8.65;100.00
36380;BME280;22411;53.016;18.632;2024-02-23T07:21:43;98220.28;;;8.59;100.00
36380;BME280;22411;53.016;18.632;2024-02-23T07:24:09;98230.47;;;8.60;100.00
36380;BME280;22411;53.016;18.632;2024-02-23T07:26:35;98230.03;;;8.65;100.00
36380;BME280;22411;53.016;18.632;2024-02-23T07:29:00;98241.16;;;8.66;100.00
36380;BME280;22411;53.016;18.632;2024-02-23T07:31:26;98229.34;;;8.63;100.00
36380;BME280;22411;53.016;18.632;2024-02-23T07:33:52;98241.59;;;8.61;100.00
36380;BME280;22411;53.016;18.632;2024-02-23T07:36:18;98248.66;;;8.59;100.00
36380;BME280;22411;53.016;18.632;2024-02-23T07:38:44;98255.84;;;8.65;100.00
36380;BME280;22411;53.016;18.632;2024-02-23T07:41:10;98256.13;;;8.62;100.00
36380;BME280;22411;53.016;18.632;2024-02-23T07:43:36;98257.97;;;8.52;100.00
36380;BME280;22411;53.016;18.632;2024-02-23T07:46:02;98269.31;;;8.59;100.00
36380;BME280;22411;53.016;18.632;2024-02-23T07:48:30;98270.06;;;8.69;100.00
36380;BME280;22411;53.016;18.632;2024-02-23T07:50:56;98281.75;;;8.73;100.00
36380;BME280;22411;53.016;18.632;2024-02-23T07:53:22;98296.44;;;8.73;100.00
36380;BME280;22411;53.016;18.632;2024-02-23T07:55:47;98292.06;;;8.73;100.00
36380;BME280;22411;53.016;18.632;2024-02-23T07:58:13;98292.72;;;8.75;100.00
36380;BME280;22411;53.016;18.632;2024-02-23T08:00:39;98302.84;;;8.69;100.00
36380;BME280;22411;53.016;18.632;2024-02-23T08:03:05;98307.94;;;8.78;100.00
36380;BME280;22411;53.016;18.632;2024-02-23T08:05:30;98326.56;;;8.82;100.00
36380;BME280;22411;53.016;18.632;2024-02-23T08:07:59;98324.19;;;8.88;100.00
36380;BME280;22411;53.016;18.632;2024-02-23T08:10:25;98326.13;;;8.86;100.00
36380;BME280;22411;53.016;18.632;2024-02-23T08:12:51;98334.31;;;8.82;100.00
36380;BME280;22411;53.016;18.632;2024-02-23T08:15:17;98336.13;;;8.89;100.00
36380;BME280;22411;53.016;18.632;2024-02-23T08:17:42;98338.22;;;8.86;100.00
36380;BME280;22411;53.016;18.632;2024-02-23T08:20:08;98354.38;;;8.88;100.00
36380;BME280;22411;53.016;18.632;2024-02-23T08:22:34;98350.56;;;8.92;100.00
36380;BME280;22411;53.016;18.632;2024-02-23T08:25:00;98352.69;;;8.97;100.00
36380;BME280;22411;53.016;18.632;2024-02-23T08:27:26;98352.91;;;9.03;100.00
36380;BME280;22411;53.016;18.632;2024-02-23T08:29:52;98362.50;;;9.11;100.00
36380;BME280;22411;53.016;18.632;2024-02-23T08:32:18;98368.19;;;9.14;100.00
36380;BME280;22411;53.016;18.632;2024-02-23T08:34:44;98379.34;;;9.15;100.00
36380;BME280;22411;53.016;18.632;2024-02-23T08:37:10;98383.34;;;9.09;100.00
36380;BME280;22411;53.016;18.632;2024-02-23T08:39:35;98382.91;;;9.14;100.00
36380;BME280;22411;53.016;18.632;2024-02-23T08:42:03;98387.31;;;9.22;100.00
36380;BME280;22411;53.016;18.632;2024-02-23T08:44:28;98398.41;;;9.14;100.00
36380;BME280;22411;53.016;18.632;2024-02-23T08:46:54;98402.06;;;9.11;100.00
36380;BME280;22411;53.016;18.632;2024-02-23T08:49:20;98420.47;;;9.08;100.00
36380;BME280;22411;53.016;18.632;2024-02-23T08:51:46;98422.25;;;9.08;100.00
36380;BME280;22411;53.016;18.632;2024-02-23T08:54:11;98429.31;;;9.06;100.00
36380;BME280;22411;53.016;18.632;2024-02-23T08:56:38;98428.06;;;9.10;100.00
36380;BME280;22411;53.016;18.632;2024-02-23T08:59:08;98444.16;;;9.04;100.00
36380;BME280;22411;53.016;18.632;2024-02-23T09:01:35;98434.66;;;9.04;100.00
36380;BME280;22411;53.016;18.632;2024-02-23T09:04:01;98444.31;;;9.02;100.00
36380;BME280;22411;53.016;18.632;2024-02-23T09:06:27;98447.34;;;8.98;100.00
36380;BME280;22411;53.016;18.632;2024-02-23T09:08:52;98457.38;;;9.01;100.00
36380;BME280;22411;53.016;18.632;2024-02-23T09:11:18;98450.97;;;9.05;100.00
36380;BME280;22411;53.016;18.632;2024-02-23T09:13:44;98449.72;;;9.09;100.00
36380;BME280;22411;53.016;18.632;2024-02-23T09:16:10;98456.13;;;9.05;100.00
36380;BME280;22411;53.016;18.632;2024-02-23T09:18:36;98463.72;;;9.06;100.00
36380;BME280;22411;53.016;18.632;2024-02-23T09:21:03;98469.28;;;9.11;100.00
36380;BME280;22411;53.016;18.632;2024-02-23T09:23:28;98471.84;;;9.11;100.00
36380;BME280;22411;53.016;18.632;2024-02-23T09:25:54;98460.97;;;9.18;100.00
36380;BME280;22411;53.016;18.632;2024-02-23T09:28:20;98469.31;;;9.29;100.00
36380;BME280;22411;53.016;18.632;2024-02-23T09:30:46;98476.50;;;9.35;100.00
36380;BME280;22411;53.016;18.632;2024-02-23T09:33:11;98477.56;;;9.33;100.00
36380;BME280;22411;53.016;18.632;2024-02-23T09:35:37;98478.91;;;9.37;100.00
36380;BME280;22411;53.016;18.632;2024-02-23T09:38:03;98478.41;;;9.33;100.00
36380;BME280;22411;53.016;18.632;2024-02-23T09:40:29;98505.97;;;9.42;100.00
36380;BME280;22411;53.016;18.632;2024-02-23T09:42:58;98509.94;;;9.37;100.00
36380;BME280;22411;53.016;18.632;2024-02-23T09:45:25;98516.22;;;9.34;100.00
36380;BME280;22411;53.016;18.632;2024-02-23T09:47:53;98515.81;;;9.39;100.00
36380;BME280;22411;53.016;18.632;2024-02-23T09:50:20;98524.25;;;9.31;100.00
36380;BME280;22411;53.016;18.632;2024-02-23T09:52:47;98527.00;;;9.30;100.00
36380;BME280;22411;53.016;18.632;2024-02-23T09:55:16;98534.44;;;9.33;100.00
36380;BME280;22411;53.016;18.632;2024-02-23T09:57:43;98535.00;;;9.36;100.00
36380;BME280;22411;53.016;18.632;2024-02-23T10:00:09;98541.50;;;9.40;100.00
36380;BME280;22411;53.016;18.632;2024-02-23T10:02:36;98549.78;;;9.44;100.00
36380;BME280;22411;53.016;18.632;2024-02-23T10:05:02;98550.34;;;9.38;100.00
36380;BME280;22411;53.016;18.632;2024-02-23T10:07:28;98559.56;;;9.50;100.00
36380;BME280;22411;53.016;18.632;2024-02-23T10:09:54;98555.69;;;9.54;100.00
36380;BME280;22411;53.016;18.632;2024-02-23T10:12:20;98557.56;;;9.62;100.00
36380;BME280;22411;53.016;18.632;2024-02-23T10:14:46;98565.09;;;9.55;100.00
36380;BME280;22411;53.016;18.632;2024-02-23T10:17:12;98572.28;;;9.61;100.00
36380;BME280;22411;53.016;18.632;2024-02-23T10:19:38;98580.31;;;9.58;100.00
36380;BME280;22411;53.016;18.632;2024-02-23T10:22:04;98589.97;;;9.66;100.00
36380;BME280;22411;53.016;18.632;2024-02-23T10:24:30;98589.53;;;9.71;100.00
36380;BME280;22411;53.016;18.632;2024-02-23T10:26:56;98600.03;;;9.59;100.00
36380;BME280;22411;53.016;18.632;2024-02-23T10:29:23;98598.97;;;9.62;100.00
36380;BME280;22411;53.016;18.632;2024-02-23T10:31:51;98614.66;;;9.51;100.00
36380;BME280;22411;53.016;18.632;2024-02-23T10:34:19;98608.69;;;9.50;100.00
36380;BME280;22411;53.016;18.632;2024-02-23T10:36:45;98606.41;;;9.37;100.00
36380;BME280;22411;53.016;18.632;2024-02-23T10:39:17;98611.78;;;9.54;100.00
36380;BME280;22411;53.016;18.632;2024-02-23T10:41:54;98618.69;;;9.63;100.00
36380;BME280;22411;53.016;18.632;2024-02-23T10:44:21;98637.59;;;9.63;100.00
36380;BME280;22411;53.016;18.632;2024-02-23T10:46:48;98636.31;;;9.77;100.00
36380;BME280;22411;53.016;18.632;2024-02-23T10:49:17;98639.13;;;9.84;100.00
36380;BME280;22411;53.016;18.632;2024-02-23T10:51:46;98637.66;;;9.81;100.00
36380;BME280;22411;53.016;18.632;2024-02-23T10:54:13;98639.66;;;9.87;100.00
36380;BME280;22411;53.016;18.632;2024-02-23T10:56:39;98651.09;;;9.85;100.00
36380;BME280;22411;53.016;18.632;2024-02-23T10:59:08;98649.16;;;10.14;100.00
36380;BME280;22411;53.016;18.632;2024-02-23T11:01:34;98663.88;;;10.14;100.00
36380;BME280;22411;53.016;18.632;2024-02-23T11:04:01;98651.97;;;10.21;100.00
36380;BME280;22411;53.016;18.632;2024-02-23T11:06:28;98649.44;;;10.65;100.00
36380;BME280;22411;53.016;18.632;2024-02-23T11:09:04;98654.72;;;10.73;100.00
36380;BME280;22411;53.016;18.632;2024-02-23T11:11:32;98666.88;;;10.98;100.00
36380;BME280;22411;53.016;18.632;2024-02-23T11:14:02;98672.19;;;11.15;100.00
36380;BME280;22411;53.016;18.632;2024-02-23T11:16:31;98674.16;;;10.95;100.00
36380;BME280;22411;53.016;18.632;2024-02-23T11:19:05;98681.66;;;11.06;100.00
36380;BME280;22411;53.016;18.632;2024-02-23T11:21:37;98689.41;;;10.80;100.00
36380;BME280;22411;53.016;18.632;2024-02-23T11:24:04;98686.72;;;10.46;100.00
36380;BME280;22411;53.016;18.632;2024-02-23T11:26:31;98688.41;;;10.55;100.00
36380;BME280;22411;53.016;18.632;2024-02-23T11:28:59;98696.41;;;10.16;100.00
36380;BME280;22411;53.016;18.632;2024-02-23T11:31:34;98680.19;;;9.97;100.00
36380;BME280;22411;53.016;18.632;2024-02-23T11:34:00;98687.31;;;9.85;100.00
36380;BME280;22411;53.016;18.632;2024-02-23T11:39:00;98698.53;;;10.03;100.00
36380;BME280;22411;53.016;18.632;2024-02-23T11:41:27;98694.03;;;9.78;99.70
36380;BME280;22411;53.016;18.632;2024-02-23T11:43:54;98710.84;;;9.64;100.00
36380;BME280;22411;53.016;18.632;2024-02-23T11:46:21;98698.44;;;9.67;100.00
36380;BME280;22411;53.016;18.632;2024-02-23T11:48:48;98704.47;;;9.58;100.00
36380;BME280;22411;53.016;18.632;2024-02-23T11:51:22;98715.00;;;9.75;100.00
36380;BME280;22411;53.016;18.632;2024-02-23T11:53:49;98715.03;;;10.02;100.00
36380;BME280;22411;53.016;18.632;2024-02-23T11:56:15;98715.75;;;9.94;97.43
36380;BME280;22411;53.016;18.632;2024-02-23T11:58:42;98723.91;;;10.00;100.00
36380;BME280;22411;53.016;18.632;2024-02-23T12:01:07;98711.72;;;10.10;100.00
36380;BME280;22411;53.016;18.632;2024-02-23T12:03:34;98716.16;;;10.17;100.00
36380;BME280;22411;53.016;18.632;2024-02-23T12:06:00;98723.44;;;9.86;100.00
36380;BME280;22411;53.016;18.632;2024-02-23T12:08:27;98730.66;;;9.83;96.18
36380;BME280;22411;53.016;18.632;2024-02-23T12:10:56;98727.41;;;9.81;96.05
36380;BME280;22411;53.016;18.632;2024-02-23T12:13:23;98726.09;;;9.67;100.00
36380;BME280;22411;53.016;18.632;2024-02-23T12:15:52;98732.69;;;9.79;100.00
36380;BME280;22411;53.016;18.632;2024-02-23T12:18:21;98724.75;;;9.90;100.00
36380;BME280;22411;53.016;18.632;2024-02-23T12:20:49;98737.44;;;10.11;98.15
36380;BME280;22411;53.016;18.632;2024-02-23T12:23:15;98742.88;;;10.45;94.94
36380;BME280;22411;53.016;18.632;2024-02-23T12:25:55;98742.88;;;10.63;89.71
36380;BME280;22411;53.016;18.632;2024-02-23T12:28:22;98746.63;;;11.05;90.88
36380;BME280;22411;53.016;18.632;2024-02-23T12:31:04;98742.59;;;11.28;89.08
36380;BME280;22411;53.016;18.632;2024-02-23T12:33:32;98749.34;;;11.21;88.40
36380;BME280;22411;53.016;18.632;2024-02-23T12:35:59;98758.47;;;11.07;89.65
36380;BME280;22411;53.016;18.632;2024-02-23T12:38:26;98755.06;;;11.24;86.12
36380;BME280;22411;53.016;18.632;2024-02-23T12:40:51;98759.28;;;11.51;73.33
36380;BME280;22411;53.016;18.632;2024-02-23T12:43:18;98758.31;;;11.26;80.94
36380;BME280;22411;53.016;18.632;2024-02-23T12:45:47;98750.56;;;11.09;81.89
36380;BME280;22411;53.016;18.632;2024-02-23T12:48:17;98746.88;;;10.93;81.37